Zwolle, Louisiana
Current Conditions -  °F | °C
As of 10:56 PM on Sunday 21 Dec 2014 (Local Time) from KAQV Reporting Station
Haze Haze  
Wind Chill: 50°   Ceiling: 200
Heat Index: 50°   Visibility: 2.5mi
Dew Point: 49°   Wind: 0mph
Humidity: 96%   Direction: NA
Pressure: 29.9"   Gusts: NA
Location:  31.63°N, 93.64°W
Report Text: KAQV 220456Z AUTO 00000KT 2 1/2SM BR OVC002 10/09 A2990 RMK AO2 SLP126 T01000094 $
Loading
Personal Weather Stations






























Interactive Weather Map New forecast layout! Learn more

10-Day Weather Forecast

Advertisements
Track Severe Weather on mobile